createdAt,value
2023-04-02T00:00:51.759Z,982.16
2023-04-02T00:01:53.572Z,982.2
2023-04-02T00:02:55.362Z,982.17
2023-04-02T00:03:57.021Z,982.19
2023-04-02T00:04:58.714Z,982.22
2023-04-02T00:06:00.443Z,982.25
2023-04-02T00:07:02.189Z,982.25
2023-04-02T00:08:04.096Z,982.25
2023-04-02T00:09:05.667Z,982.23
2023-04-02T00:10:07.389Z,982.28
2023-04-02T00:11:09.219Z,982.27
2023-04-02T00:12:11.029Z,982.29
2023-04-02T00:13:12.634Z,982.32
2023-04-02T00:14:14.343Z,982.39
2023-04-02T00:15:16.064Z,982.39
2023-04-02T00:16:17.816Z,982.41
2023-04-02T00:17:19.522Z,982.39
2023-04-02T00:18:21.422Z,982.4
2023-04-02T00:19:23.045Z,982.44
2023-04-02T00:20:24.807Z,982.39
2023-04-02T00:21:26.490Z,982.42
2023-04-02T00:22:28.199Z,982.42
2023-04-02T00:23:29.937Z,982.45
2023-04-02T00:24:31.712Z,982.45
2023-04-02T00:25:33.769Z,982.47
2023-04-02T00:26:35.164Z,982.47
2023-04-02T00:27:37.074Z,982.48
2023-04-02T00:28:38.638Z,982.51
2023-04-02T00:29:40.376Z,982.5
2023-04-02T00:30:42.105Z,982.52
2023-04-02T00:31:43.843Z,982.61
2023-04-02T00:32:45.608Z,982.54
2023-04-02T00:33:47.280Z,982.57
2023-04-02T00:34:49.057Z,982.57
2023-04-02T00:35:50.885Z,982.6
2023-04-02T00:36:52.495Z,982.59
2023-04-02T00:37:54.244Z,982.57
2023-04-02T00:38:55.964Z,982.6
2023-04-02T00:39:57.704Z,982.6
2023-04-02T00:40:59.420Z,982.62
2023-04-02T00:42:01.205Z,982.63
2023-04-02T00:43:02.883Z,982.59
2023-04-02T00:44:04.634Z,982.62
2023-04-02T00:45:06.405Z,982.6
2023-04-02T00:46:08.151Z,982.65
2023-04-02T00:47:09.827Z,982.66
2023-04-02T00:48:11.597Z,982.68
2023-04-02T00:49:13.302Z,982.66
2023-04-02T00:50:15.030Z,982.64
2023-04-02T00:51:16.762Z,982.67
2023-04-02T00:52:18.535Z,982.62
2023-04-02T00:53:20.227Z,982.64
2023-04-02T00:54:21.988Z,982.6
2023-04-02T00:55:23.707Z,982.61
2023-04-02T00:56:25.448Z,982.63
2023-04-02T00:57:27.247Z,982.68
2023-04-02T00:58:28.957Z,982.63
2023-04-02T00:59:30.618Z,982.67
2023-04-02T01:00:32.399Z,982.66
2023-04-02T01:01:34.174Z,982.63
2023-04-02T01:02:36.001Z,982.68
2023-04-02T01:03:38.042Z,982.66
2023-04-02T01:04:39.354Z,982.62
2023-04-02T01:05:41.081Z,982.69
2023-04-02T01:06:42.785Z,982.72
2023-04-02T01:07:44.562Z,982.69
2023-04-02T01:08:46.276Z,982.74
2023-04-02T01:09:47.972Z,982.7
2023-04-02T01:10:49.701Z,982.76
2023-04-02T01:11:51.444Z,982.75
2023-04-02T01:12:53.171Z,982.76
2023-04-02T01:13:54.925Z,982.78
2023-04-02T01:14:56.627Z,982.78
2023-04-02T01:15:58.450Z,982.76
2023-04-02T01:17:00.137Z,982.76
2023-04-02T01:18:01.942Z,982.78
2023-04-02T01:19:03.593Z,982.79
2023-04-02T01:20:05.382Z,982.8
2023-04-02T01:21:07.034Z,982.79
2023-04-02T01:22:08.857Z,982.8
2023-04-02T01:23:10.554Z,982.76
2023-04-02T01:24:12.245Z,982.84
2023-04-02T01:25:14.005Z,982.84
2023-04-02T01:26:15.762Z,982.86
2023-04-02T01:27:17.455Z,982.87
2023-04-02T01:28:19.178Z,982.91
2023-04-02T01:29:20.979Z,982.95
2023-04-02T01:30:22.645Z,982.96
2023-04-02T01:31:24.442Z,982.94
2023-04-02T01:32:26.126Z,982.94
2023-04-02T01:33:27.849Z,982.93
2023-04-02T01:34:29.582Z,982.97
2023-04-02T01:35:31.319Z,982.98
2023-04-02T01:36:33.100Z,982.97
2023-04-02T01:37:34.778Z,982.99
2023-04-02T01:38:36.524Z,982.97
2023-04-02T01:39:38.231Z,982.99
2023-04-02T01:40:40.113Z,983
2023-04-02T01:41:41.737Z,982.99
2023-04-02T01:42:43.471Z,982.99
2023-04-02T01:43:45.193Z,983.01
2023-04-02T01:44:46.937Z,983.05
2023-04-02T01:45:48.657Z,983
2023-04-02T01:46:50.626Z,983.06
2023-04-02T01:47:52.143Z,983.09
2023-04-02T01:48:53.865Z,983.02
2023-04-02T01:49:55.615Z,983.05
2023-04-02T01:50:57.318Z,983.08
2023-04-02T01:51:59.044Z,983.04
2023-04-02T01:53:00.861Z,983.05
2023-04-02T01:54:02.510Z,983.12
2023-04-02T01:55:04.257Z,983.11
2023-04-02T01:56:06.121Z,983.13
2023-04-02T01:57:07.774Z,983.13
2023-04-02T01:58:09.479Z,983.16
2023-04-02T01:59:11.230Z,983.16
2023-04-02T02:00:12.997Z,983.11
2023-04-02T02:01:14.741Z,983.09
2023-04-02T02:02:16.588Z,983.18
2023-04-02T02:03:18.205Z,983.13
2023-04-02T02:04:19.905Z,983.15
2023-04-02T02:05:21.654Z,983.17
2023-04-02T02:06:23.354Z,983.22
2023-04-02T02:07:25.049Z,983.19
2023-04-02T02:08:26.803Z,983.21
2023-04-02T02:09:28.508Z,983.23
2023-04-02T02:10:30.305Z,983.23
2023-04-02T02:11:32.044Z,983.25
2023-04-02T02:12:33.747Z,983.27
2023-04-02T02:13:35.458Z,983.28
2023-04-02T02:14:37.220Z,983.25
2023-04-02T02:15:38.937Z,983.31
2023-04-02T02:16:40.743Z,983.28
2023-04-02T02:17:42.448Z,983.25
2023-04-02T02:18:44.122Z,983.3
2023-04-02T02:19:45.881Z,983.33
2023-04-02T02:20:47.668Z,983.32
2023-04-02T02:21:49.324Z,983.34
2023-04-02T02:22:51.067Z,983.36
2023-04-02T02:23:52.796Z,983.36
2023-04-02T02:24:54.545Z,983.33
2023-04-02T02:25:56.277Z,983.36
2023-04-02T02:26:58.001Z,983.4
2023-04-02T02:27:59.773Z,983.41
2023-04-02T02:29:01.502Z,983.4
2023-04-02T02:30:03.231Z,983.45
2023-04-02T02:31:04.945Z,983.4
2023-04-02T02:32:06.704Z,983.43
2023-04-02T02:33:08.441Z,983.46
2023-04-02T02:34:10.169Z,983.49
2023-04-02T02:35:11.926Z,983.51
2023-04-02T02:36:13.705Z,983.5
2023-04-02T02:37:15.359Z,983.54
2023-04-02T02:38:17.149Z,983.52
2023-04-02T02:39:18.838Z,983.57
2023-04-02T02:40:20.585Z,983.61
2023-04-02T02:41:22.300Z,983.57
2023-04-02T02:42:24.036Z,983.52
2023-04-02T02:43:25.783Z,983.54
2023-04-02T02:44:27.502Z,983.63
2023-04-02T02:45:29.396Z,983.57
2023-04-02T02:46:31.043Z,983.63
2023-04-02T02:47:32.724Z,983.6
2023-04-02T02:48:34.422Z,983.63
2023-04-02T02:49:36.171Z,983.68
2023-04-02T02:50:37.875Z,983.63
2023-04-02T02:51:39.638Z,983.62
2023-04-02T02:52:41.405Z,983.65
2023-04-02T02:53:43.116Z,983.65
2023-04-02T02:54:44.888Z,983.67
2023-04-02T02:55:46.592Z,983.62
2023-04-02T02:56:48.399Z,983.66
2023-04-02T02:57:50.021Z,983.7
2023-04-02T02:58:51.804Z,983.72
2023-04-02T02:59:53.647Z,983.66
2023-04-02T03:00:55.235Z,983.72
2023-04-02T03:01:56.961Z,983.73
2023-04-02T03:02:58.899Z,983.81
2023-04-02T03:04:00.572Z,983.79
2023-04-02T03:05:02.210Z,983.79
2023-04-02T03:06:03.935Z,983.83
2023-04-02T03:07:05.662Z,983.84
2023-04-02T03:08:07.359Z,983.84
2023-04-02T03:09:09.077Z,983.83
2023-04-02T03:10:10.826Z,983.8
2023-04-02T03:11:12.546Z,983.86
2023-04-02T03:12:14.287Z,983.85
2023-04-02T03:13:16.020Z,983.85
2023-04-02T03:14:17.759Z,983.83
2023-04-02T03:15:19.508Z,983.88
2023-04-02T03:16:21.440Z,983.91
2023-04-02T03:17:22.964Z,983.9
2023-04-02T03:18:24.734Z,983.89
2023-04-02T03:19:26.437Z,983.92
2023-04-02T03:20:28.165Z,983.99
2023-04-02T03:21:29.907Z,983.93
2023-04-02T03:22:31.643Z,983.98
2023-04-02T03:23:33.410Z,984
2023-04-02T03:24:35.094Z,983.96
2023-04-02T03:25:37.081Z,984
2023-04-02T03:26:38.612Z,984.01
2023-04-02T03:27:40.307Z,984.03
2023-04-02T03:28:42.072Z,984.04
2023-04-02T03:29:43.788Z,984.08
2023-04-02T03:30:45.538Z,984.12
2023-04-02T03:31:47.489Z,984.08
2023-04-02T03:32:49.044Z,984.1
2023-04-02T03:33:50.712Z,984.12
2023-04-02T03:34:52.446Z,984.15
2023-04-02T03:35:54.198Z,984.16
2023-04-02T03:36:55.922Z,984.2
2023-04-02T03:37:57.639Z,984.19
2023-04-02T03:38:59.377Z,984.22
2023-04-02T03:40:01.144Z,984.19
2023-04-02T03:41:02.852Z,984.21
2023-04-02T03:42:04.623Z,984.26
2023-04-02T03:43:06.323Z,984.26
2023-04-02T03:44:08.050Z,984.26
2023-04-02T03:45:09.785Z,984.28
2023-04-02T03:46:11.599Z,984.3
2023-04-02T03:47:13.295Z,984.31
2023-04-02T03:48:15.146Z,984.27
2023-04-02T03:49:16.721Z,984.33
2023-04-02T03:50:18.488Z,984.38
2023-04-02T03:51:20.210Z,984.37
2023-04-02T03:52:21.951Z,984.4
2023-04-02T03:53:23.650Z,984.4
2023-04-02T03:54:25.383Z,984.4
2023-04-02T03:55:27.137Z,984.39
2023-04-02T03:56:28.850Z,984.46
2023-04-02T03:57:30.671Z,984.37
2023-04-02T03:58:32.360Z,984.51
2023-04-02T03:59:34.046Z,984.49
2023-04-02T04:00:35.831Z,984.52
2023-04-02T04:01:37.572Z,984.52
2023-04-02T04:02:39.309Z,984.61
2023-04-02T04:03:41.001Z,984.58
2023-04-02T04:04:42.741Z,984.59
2023-04-02T04:05:44.463Z,984.65
2023-04-02T04:06:46.257Z,984.68
2023-04-02T04:07:47.942Z,984.68
2023-04-02T04:08:49.646Z,984.61
2023-04-02T04:09:51.402Z,984.68
2023-04-02T04:10:53.168Z,984.68
2023-04-02T04:11:55.010Z,984.71
2023-04-02T04:12:56.591Z,984.74
2023-04-02T04:13:58.330Z,984.77
2023-04-02T04:15:00.147Z,984.75
2023-04-02T04:16:01.847Z,984.79
2023-04-02T04:17:03.544Z,984.78
2023-04-02T04:18:05.314Z,984.79
2023-04-02T04:19:06.970Z,984.81
2023-04-02T04:20:08.722Z,984.82
2023-04-02T04:21:10.499Z,984.84
2023-04-02T04:22:12.214Z,984.85
2023-04-02T04:23:13.975Z,984.87
2023-04-02T04:24:15.647Z,984.87
2023-04-02T04:25:17.399Z,984.89
2023-04-02T04:26:19.128Z,984.91
2023-04-02T04:27:20.918Z,984.95
2023-04-02T04:28:22.583Z,984.95
2023-04-02T04:29:24.321Z,984.94
2023-04-02T04:30:26.105Z,984.97
2023-04-02T04:31:27.810Z,985
2023-04-02T04:32:29.570Z,984.99
2023-04-02T04:33:31.242Z,985.02
2023-04-02T04:34:32.998Z,985.04
2023-04-02T04:35:35.170Z,985.05
2023-04-02T04:36:36.445Z,985.04
2023-04-02T04:37:38.204Z,985.07
2023-04-02T04:38:39.964Z,985.06
2023-04-02T04:39:41.676Z,985.04
2023-04-02T04:40:43.394Z,985.12
2023-04-02T04:41:45.139Z,985.11
2023-04-02T04:42:46.878Z,985.11
2023-04-02T04:43:48.605Z,985.1
2023-04-02T04:44:50.388Z,985.11
2023-04-02T04:45:52.113Z,985.09
2023-04-02T04:46:53.833Z,985.08
2023-04-02T04:47:55.630Z,985.12
2023-04-02T04:48:57.291Z,985.12
2023-04-02T04:49:59.042Z,985.13
2023-04-02T04:51:00.765Z,985.17
2023-04-02T04:52:02.509Z,985.19
2023-04-02T04:53:04.197Z,985.22
2023-04-02T04:54:05.945Z,985.23
2023-04-02T04:55:07.712Z,985.24
2023-04-02T04:56:18.693Z,985.26
2023-04-02T04:57:11.203Z,985.3
2023-04-02T04:58:12.925Z,985.29
2023-04-02T04:59:14.603Z,985.28
2023-04-02T05:00:16.354Z,985.31
2023-04-02T05:01:18.122Z,985.31
2023-04-02T05:02:19.824Z,985.33
2023-04-02T05:03:21.584Z,985.42
2023-04-02T05:04:23.497Z,985.43
2023-04-02T05:05:25.035Z,985.43
2023-04-02T05:06:26.781Z,985.44
2023-04-02T05:07:28.543Z,985.41
2023-04-02T05:08:30.256Z,985.46
2023-04-02T05:09:31.955Z,985.45
2023-04-02T05:10:33.733Z,985.48
2023-04-02T05:11:35.423Z,985.52
2023-04-02T05:12:37.153Z,985.54
2023-04-02T05:13:38.906Z,985.51
2023-04-02T05:14:40.626Z,985.55
2023-04-02T05:15:42.425Z,985.55
2023-04-02T05:16:44.091Z,985.62
2023-04-02T05:17:45.902Z,985.61
2023-04-02T05:18:47.557Z,985.6
2023-04-02T05:19:49.284Z,985.63
2023-04-02T05:20:51.047Z,985.64
2023-04-02T05:21:52.749Z,985.64
2023-04-02T05:22:54.554Z,985.68
2023-04-02T05:23:56.219Z,985.71
2023-04-02T05:24:58.007Z,985.75
2023-04-02T05:25:59.683Z,985.77
2023-04-02T05:27:01.434Z,985.76
2023-04-02T05:28:03.145Z,985.77
2023-04-02T05:29:04.903Z,985.77
2023-04-02T05:30:06.642Z,985.76
2023-04-02T05:31:08.497Z,985.81
2023-04-02T05:32:10.100Z,985.84
2023-04-02T05:33:11.855Z,985.87
2023-04-02T05:34:13.604Z,985.86
2023-04-02T05:35:15.311Z,985.86
2023-04-02T05:36:17.073Z,985.88
2023-04-02T05:37:18.774Z,985.92
2023-04-02T05:38:20.533Z,985.89
2023-04-02T05:39:22.230Z,985.9
2023-04-02T05:40:23.973Z,985.95
2023-04-02T05:41:25.710Z,985.94
2023-04-02T05:42:27.740Z,985.92
2023-04-02T05:43:29.215Z,985.93
2023-04-02T05:44:30.892Z,985.92
2023-04-02T05:45:32.852Z,985.94
2023-04-02T05:46:34.391Z,986.06
2023-04-02T05:47:36.114Z,986.01
2023-04-02T05:48:38.021Z,986.03
2023-04-02T05:49:39.564Z,986.05
2023-04-02T05:50:41.288Z,986.06
2023-04-02T05:51:43.036Z,986.03
2023-04-02T05:52:44.819Z,986.1
2023-04-02T05:53:46.466Z,986.09
2023-04-02T05:54:48.208Z,986.16
2023-04-02T05:55:49.943Z,986.13
2023-04-02T05:56:51.705Z,986.13
2023-04-02T05:58:13.566Z,986.07
2023-04-02T05:58:55.287Z,986.15
2023-04-02T05:59:56.866Z,986.19
2023-04-02T06:00:58.601Z,986.2
2023-04-02T06:02:00.466Z,986.17
2023-04-02T06:03:02.155Z,986.22
2023-04-02T06:04:03.846Z,986.21
2023-04-02T06:05:05.579Z,986.26
2023-04-02T06:06:07.364Z,986.24
2023-04-02T06:07:09.181Z,986.3
2023-04-02T06:08:10.746Z,986.31
2023-04-02T06:09:12.692Z,986.33
2023-04-02T06:10:14.234Z,986.34
2023-04-02T06:11:15.938Z,986.37
2023-04-02T06:12:17.688Z,986.35
2023-04-02T06:13:19.416Z,986.41
2023-04-02T06:14:21.149Z,986.41
2023-04-02T06:15:22.891Z,986.4
2023-04-02T06:16:24.677Z,986.41
2023-04-02T06:17:26.374Z,986.43
2023-04-02T06:18:28.119Z,986.51
2023-04-02T06:19:29.837Z,986.47
2023-04-02T06:20:31.586Z,986.51
2023-04-02T06:21:33.460Z,986.5
2023-04-02T06:22:35.029Z,986.53
2023-04-02T06:23:36.760Z,986.5
2023-04-02T06:24:38.506Z,986.5
2023-04-02T06:25:40.242Z,986.58
2023-04-02T06:26:41.959Z,986.59
2023-04-02T06:27:43.898Z,986.57
2023-04-02T06:28:45.425Z,986.61
2023-04-02T06:29:47.170Z,986.62
2023-04-02T06:30:48.915Z,986.61
2023-04-02T06:31:50.629Z,986.69
2023-04-02T06:32:52.439Z,986.65
2023-04-02T06:33:54.108Z,986.68
2023-04-02T06:34:55.848Z,986.74
2023-04-02T06:35:57.613Z,986.76
2023-04-02T06:36:59.293Z,986.78
2023-04-02T06:38:01.060Z,986.8
2023-04-02T06:39:02.767Z,986.84
2023-04-02T06:40:04.512Z,986.81
2023-04-02T06:41:06.304Z,986.85
2023-04-02T06:42:08.019Z,986.86
2023-04-02T06:43:09.699Z,986.87
2023-04-02T06:44:11.447Z,986.91
2023-04-02T06:45:13.194Z,986.9
2023-04-02T06:46:15.012Z,986.89
2023-04-02T06:47:16.640Z,986.89
2023-04-02T06:48:18.394Z,986.94
2023-04-02T06:49:20.130Z,986.95
2023-04-02T06:50:21.851Z,986.99
2023-04-02T06:51:23.610Z,986.98
2023-04-02T06:52:25.330Z,987.02
2023-04-02T06:53:27.041Z,987
2023-04-02T06:54:28.780Z,987.04
2023-04-02T06:55:30.624Z,987.05
2023-04-02T06:56:32.260Z,987.07
2023-04-02T06:57:34.058Z,987.12
2023-04-02T06:58:35.718Z,987.15
2023-04-02T06:59:37.443Z,987.17
2023-04-02T07:00:39.214Z,987.2
2023-04-02T07:01:40.957Z,987.2
2023-04-02T07:02:42.786Z,987.2
2023-04-02T07:03:44.390Z,987.22
2023-04-02T07:04:46.186Z,987.26
2023-04-02T07:05:47.876Z,987.27
2023-04-02T07:06:49.563Z,987.27
2023-04-02T07:07:51.311Z,987.26
2023-04-02T07:08:53.050Z,987.27
2023-04-02T07:09:54.958Z,987.31
2023-04-02T07:10:56.529Z,987.36
2023-04-02T07:11:58.239Z,987.4
2023-04-02T07:12:59.972Z,987.36
2023-04-02T07:14:01.755Z,987.41
2023-04-02T07:15:03.467Z,987.4
2023-04-02T07:16:05.259Z,987.41
2023-04-02T07:17:06.909Z,987.43
2023-04-02T07:18:08.813Z,987.48
2023-04-02T07:19:10.378Z,987.51
2023-04-02T07:20:12.132Z,987.54
2023-04-02T07:21:13.861Z,987.55
2023-04-02T07:22:15.593Z,987.54
2023-04-02T07:23:17.316Z,987.6
2023-04-02T07:24:19.048Z,987.62
2023-04-02T07:25:20.769Z,987.67
2023-04-02T07:26:22.524Z,987.67
2023-04-02T07:27:24.246Z,987.6
2023-04-02T07:28:25.988Z,987.71
2023-04-02T07:29:27.736Z,987.74
2023-04-02T07:30:29.475Z,987.75
2023-04-02T07:31:31.288Z,987.78
2023-04-02T07:32:33.016Z,987.8
2023-04-02T07:33:34.676Z,987.86
2023-04-02T07:34:36.507Z,987.84
2023-04-02T07:35:38.507Z,987.88
2023-04-02T07:36:39.857Z,987.94
2023-04-02T07:37:41.581Z,987.98
2023-04-02T07:38:43.336Z,987.95
2023-04-02T07:39:45.093Z,987.99
2023-04-02T07:40:46.803Z,988.01
2023-04-02T07:41:48.518Z,988.03
2023-04-02T07:42:50.265Z,988.01
2023-04-02T07:43:52.006Z,988.06
2023-04-02T07:44:53.742Z,988.08
2023-04-02T07:45:55.458Z,988.06
2023-04-02T07:46:57.253Z,988.07
2023-04-02T07:47:58.993Z,988.07
2023-04-02T07:49:00.706Z,988.13
2023-04-02T07:50:02.399Z,988.2
2023-04-02T07:51:04.171Z,988.17
2023-04-02T07:52:05.864Z,988.2
2023-04-02T07:53:07.601Z,988.31
2023-04-02T07:54:09.354Z,988.25
2023-04-02T07:55:11.068Z,988.33
2023-04-02T07:56:12.822Z,988.35
2023-04-02T07:57:14.611Z,988.4
2023-04-02T07:58:16.266Z,988.43
2023-04-02T07:59:18.062Z,988.36
2023-04-02T08:00:19.769Z,988.44
2023-04-02T08:01:21.497Z,988.47
2023-04-02T08:02:23.351Z,988.53
2023-04-02T08:03:25.075Z,988.49
2023-04-02T08:04:26.679Z,988.5
2023-04-02T08:05:28.473Z,988.54
2023-04-02T08:06:30.167Z,988.57
2023-04-02T08:07:31.860Z,988.61
2023-04-02T08:08:33.601Z,988.57
2023-04-02T08:09:35.345Z,988.64
2023-04-02T08:10:37.088Z,988.68
2023-04-02T08:11:38.806Z,988.71
2023-04-02T08:12:40.564Z,988.72
2023-04-02T08:13:42.286Z,988.75
2023-04-02T08:14:44.026Z,988.66
2023-04-02T08:15:45.760Z,988.81
2023-04-02T08:16:47.644Z,988.72
2023-04-02T08:17:49.230Z,988.77
2023-04-02T08:18:50.944Z,988.8
2023-04-02T08:19:55.303Z,988.81
2023-04-02T08:20:54.411Z,988.77
2023-04-02T08:21:56.146Z,988.83
2023-04-02T08:22:57.874Z,988.86
2023-04-02T08:23:59.625Z,988.79
2023-04-02T08:25:01.365Z,988.88
2023-04-02T08:26:03.083Z,988.92
2023-04-02T08:27:04.845Z,988.94
2023-04-02T08:28:06.613Z,988.91
2023-04-02T08:29:08.282Z,989.03
2023-04-02T08:30:10.062Z,989.02
2023-04-02T08:31:11.951Z,989.04
2023-04-02T08:32:13.474Z,989.05
2023-04-02T08:33:15.260Z,989.08
2023-04-02T08:34:16.950Z,989.1
2023-04-02T08:35:18.902Z,989.14
2023-04-02T08:36:20.555Z,989.1
2023-04-02T08:37:22.152Z,989.15
2023-04-02T08:38:23.924Z,989.15
2023-04-02T08:39:25.626Z,989.17
2023-04-02T08:40:27.555Z,989.22
2023-04-02T08:41:29.101Z,989.22
2023-04-02T08:42:30.812Z,989.23
2023-04-02T08:43:32.563Z,989.23
2023-04-02T08:44:34.307Z,989.29
2023-04-02T08:45:36.030Z,989.27
2023-04-02T08:46:37.835Z,989.29
2023-04-02T08:47:39.552Z,989.34
2023-04-02T08:48:42.613Z,989.31
2023-04-02T08:49:43.020Z,989.39
2023-04-02T08:50:50.837Z,989.34
2023-04-02T08:51:51.667Z,989.44
2023-04-02T08:53:19.878Z,989.47
2023-04-02T08:54:23.946Z,989.55
2023-04-02T08:55:25.666Z,989.56
2023-04-02T08:56:27.418Z,989.59
2023-04-02T08:57:29.243Z,989.55
2023-04-02T08:58:30.919Z,989.57
2023-04-02T08:59:32.607Z,989.6
2023-04-02T09:00:35.621Z,989.65
2023-04-02T09:01:36.150Z,989.66
2023-04-02T09:02:37.920Z,989.63
2023-04-02T09:03:39.558Z,989.72
2023-04-02T09:04:41.297Z,989.7
2023-04-02T09:05:45.731Z,989.72
2023-04-02T09:06:52.503Z,989.77
2023-04-02T09:07:56.690Z,989.77
2023-04-02T09:08:58.540Z,989.82
2023-04-02T09:10:00.308Z,989.8
2023-04-02T09:11:01.918Z,989.84
2023-04-02T09:12:03.636Z,989.86
2023-04-02T09:13:05.381Z,989.91
2023-04-02T09:14:07.109Z,989.89
2023-04-02T09:15:08.835Z,989.94
2023-04-02T09:16:10.653Z,989.9
2023-04-02T09:17:12.319Z,989.91
2023-04-02T09:18:21.516Z,990.04
2023-04-02T09:19:23.188Z,989.99
2023-04-02T09:20:24.974Z,989.98
2023-04-02T09:21:26.657Z,990.02
2023-04-02T09:22:28.435Z,990.04
2023-04-02T09:23:30.145Z,990.1
2023-04-02T09:24:33.299Z,990.13
2023-04-02T09:25:33.966Z,990.13
2023-04-02T09:26:35.375Z,990.14
2023-04-02T09:27:37.051Z,990.19
2023-04-02T09:28:38.839Z,990.14
2023-04-02T09:29:40.566Z,990.2
2023-04-02T09:30:42.286Z,990.22
2023-04-02T09:31:44.102Z,990.24
2023-04-02T09:32:45.869Z,990.28
2023-04-02T09:33:47.480Z,990.22
2023-04-02T09:34:49.216Z,990.3
2023-04-02T09:35:50.988Z,990.33
2023-04-02T09:36:52.664Z,990.32
2023-04-02T09:37:54.396Z,990.36
2023-04-02T09:38:56.160Z,990.33
2023-04-02T09:39:57.894Z,990.37
2023-04-02T09:40:59.609Z,990.34
2023-04-02T09:42:05.890Z,990.37
2023-04-02T09:43:03.074Z,990.4
2023-04-02T09:44:04.826Z,990.4
2023-04-02T09:45:06.545Z,990.44
2023-04-02T09:46:08.285Z,990.47
2023-04-02T09:47:10.033Z,990.47
2023-04-02T09:48:11.776Z,990.49
2023-04-02T09:49:13.473Z,990.58
2023-04-02T09:50:15.288Z,990.51
2023-04-02T09:51:16.956Z,990.62
2023-04-02T09:52:18.729Z,990.58
2023-04-02T09:53:20.428Z,990.6
2023-04-02T09:54:22.173Z,990.56
2023-04-02T09:55:23.898Z,990.62
2023-04-02T09:56:25.660Z,990.66
2023-04-02T09:57:27.558Z,990.66
2023-04-02T09:58:29.122Z,990.68
2023-04-02T09:59:30.850Z,990.7
2023-04-02T10:00:32.893Z,990.7
2023-04-02T10:01:34.392Z,990.77
2023-04-02T10:02:36.089Z,990.74
2023-04-02T10:03:37.774Z,990.73
2023-04-02T10:04:39.631Z,990.75
2023-04-02T10:05:41.708Z,990.76
2023-04-02T10:06:42.986Z,990.76
2023-04-02T10:07:44.697Z,990.83
2023-04-02T10:08:46.431Z,990.86
2023-04-02T10:09:48.174Z,990.78
2023-04-02T10:10:49.895Z,990.92
2023-04-02T10:11:51.612Z,990.88
2023-04-02T10:12:53.363Z,990.95
2023-04-02T10:13:55.091Z,990.95
2023-04-02T10:14:56.836Z,990.93
2023-04-02T10:15:58.649Z,990.94
2023-04-02T10:17:00.364Z,990.98
2023-04-02T10:18:02.169Z,990.98
2023-04-02T10:19:03.755Z,991.07
2023-04-02T10:20:05.520Z,991.07
2023-04-02T10:21:07.499Z,991.04
2023-04-02T10:22:09.004Z,991.06
2023-04-02T10:23:10.716Z,991.07
2023-04-02T10:24:12.431Z,991.12
2023-04-02T10:25:14.186Z,991.18
2023-04-02T10:26:15.915Z,991.15
2023-04-02T10:27:17.780Z,991.11
2023-04-02T10:28:19.372Z,991.19
2023-04-02T10:29:21.163Z,991.11
2023-04-02T10:30:22.843Z,991.26
2023-04-02T10:31:24.709Z,991.2
2023-04-02T10:32:26.379Z,991.25
2023-04-02T10:33:28.033Z,991.29
2023-04-02T10:34:29.784Z,991.31
2023-04-02T10:35:31.518Z,991.31
2023-04-02T10:36:33.244Z,991.27
2023-04-02T10:37:34.972Z,991.33
2023-04-02T10:38:36.712Z,991.31
2023-04-02T10:39:38.439Z,991.32
2023-04-02T10:40:40.196Z,991.35
2023-04-02T10:41:41.936Z,991.36
2023-04-02T10:42:43.654Z,991.46
2023-04-02T10:43:45.377Z,991.41
2023-04-02T10:44:47.124Z,991.48
2023-04-02T10:45:49.038Z,991.51
2023-04-02T10:46:50.788Z,991.47
2023-04-02T10:47:52.438Z,991.51
2023-04-02T10:48:54.058Z,991.58
2023-04-02T10:49:55.778Z,991.53
2023-04-02T10:50:57.524Z,991.55
2023-04-02T10:51:59.256Z,991.5
2023-04-02T10:53:00.386Z,991.63
2023-04-02T10:54:02.773Z,991.56
2023-04-02T10:55:04.442Z,991.57
2023-04-02T10:56:06.188Z,991.6
2023-04-02T10:57:07.962Z,991.6
2023-04-02T10:58:09.602Z,991.68
2023-04-02T10:59:11.319Z,991.64
2023-04-02T11:00:13.106Z,991.66
2023-04-02T11:01:15.043Z,991.69
2023-04-02T11:02:16.549Z,991.76
2023-04-02T11:03:18.429Z,991.73
2023-04-02T11:04:20.016Z,991.76
2023-04-02T11:05:21.741Z,991.78
2023-04-02T11:06:23.473Z,991.86
2023-04-02T11:07:25.190Z,991.78
2023-04-02T11:08:26.944Z,991.87
2023-04-02T11:09:28.709Z,991.89
2023-04-02T11:10:30.407Z,991.84
2023-04-02T11:11:32.097Z,991.94
2023-04-02T11:12:34.541Z,991.88
2023-04-02T11:13:35.600Z,992
2023-04-02T11:14:37.358Z,991.99
2023-04-02T11:15:39.063Z,992
2023-04-02T11:16:44.261Z,991.95
2023-04-02T11:17:42.563Z,992.05
2023-04-02T11:18:44.310Z,992.09
2023-04-02T11:19:45.995Z,992.05
2023-04-02T11:20:47.738Z,992.1
2023-04-02T11:21:58.699Z,992.13
2023-04-02T11:22:51.212Z,992.19
2023-04-02T11:23:52.950Z,992.17
2023-04-02T11:24:54.685Z,992.25
2023-04-02T11:25:56.398Z,992.24
2023-04-02T11:26:58.134Z,992.24
2023-04-02T11:27:59.889Z,992.26
2023-04-02T11:29:01.604Z,992.27
2023-04-02T11:30:03.343Z,992.28
2023-04-02T11:31:05.086Z,992.33
2023-04-02T11:32:06.772Z,992.35
2023-04-02T11:33:08.626Z,992.36
2023-04-02T11:34:10.259Z,992.38
2023-04-02T11:35:12.026Z,992.41
2023-04-02T11:36:13.748Z,992.45
2023-04-02T11:37:15.461Z,992.45
2023-04-02T11:38:17.212Z,992.43
2023-04-02T11:39:18.911Z,992.49
2023-04-02T11:40:20.701Z,992.54
2023-04-02T11:41:22.432Z,992.52
2023-04-02T11:42:24.113Z,992.58
2023-04-02T11:43:25.901Z,992.49
2023-04-02T11:44:27.600Z,992.59
2023-04-02T11:45:29.357Z,992.65
2023-04-02T11:46:31.176Z,992.56
2023-04-02T11:47:32.866Z,992.6
2023-04-02T11:48:34.527Z,992.63
2023-04-02T11:49:36.306Z,992.65
2023-04-02T11:50:38.040Z,992.66
2023-04-02T11:51:39.725Z,992.69
2023-04-02T11:52:41.504Z,992.64
2023-04-02T11:53:43.208Z,992.7
2023-04-02T11:54:44.933Z,992.71
2023-04-02T11:55:46.692Z,992.67
2023-04-02T11:56:48.512Z,992.69
2023-04-02T11:57:50.191Z,992.74
2023-04-02T11:58:51.906Z,992.8
2023-04-02T11:59:53.639Z,992.86
2023-04-02T12:00:55.374Z,992.84
2023-04-02T12:01:57.091Z,992.86
2023-04-02T12:02:58.870Z,992.86
2023-04-02T12:04:00.553Z,992.91
2023-04-02T12:05:02.358Z,992.88
2023-04-02T12:06:04.398Z,992.89
2023-04-02T12:07:05.727Z,992.92
2023-04-02T12:08:07.509Z,992.91
2023-04-02T12:09:09.239Z,992.92
2023-04-02T12:10:10.978Z,992.89
2023-04-02T12:11:12.704Z,992.93
2023-04-02T12:12:14.409Z,992.97
2023-04-02T12:13:16.131Z,992.96
2023-04-02T12:14:17.875Z,993.02
2023-04-02T12:15:19.591Z,993.03
2023-04-02T12:16:21.377Z,992.98
2023-04-02T12:17:23.161Z,993.05
2023-04-02T12:18:24.826Z,993.09
2023-04-02T12:19:26.557Z,993.11
2023-04-02T12:20:28.305Z,993.14
2023-04-02T12:21:30.018Z,993.13
2023-04-02T12:22:31.749Z,993.14
2023-04-02T12:23:33.504Z,993.2
2023-04-02T12:24:35.212Z,993.22
2023-04-02T12:25:36.968Z,993.23
2023-04-02T12:26:38.703Z,993.27
2023-04-02T12:27:40.445Z,993.26
2023-04-02T12:28:42.169Z,993.32
2023-04-02T12:29:43.890Z,993.32
2023-04-02T12:30:45.619Z,993.35
2023-04-02T12:31:47.390Z,993.38
2023-04-02T12:32:49.102Z,993.39
2023-04-02T12:33:50.818Z,993.38
2023-04-02T12:34:52.576Z,993.41
2023-04-02T12:35:54.316Z,993.42
2023-04-02T12:36:56.004Z,993.41
2023-04-02T12:37:57.732Z,993.41
2023-04-02T12:38:59.510Z,993.49
2023-04-02T12:40:01.250Z,993.52
2023-04-02T12:41:03.002Z,993.55
2023-04-02T12:42:04.709Z,993.57
2023-04-02T12:43:06.409Z,993.59
2023-04-02T12:44:08.204Z,993.58
2023-04-02T12:45:09.873Z,993.61
2023-04-02T12:46:11.693Z,993.64
2023-04-02T12:47:13.353Z,993.69
2023-04-02T12:48:15.074Z,993.68
2023-04-02T12:49:16.811Z,993.71
2023-04-02T12:50:18.548Z,993.65
2023-04-02T12:51:20.330Z,993.73
2023-04-02T12:52:22.059Z,993.73
2023-04-02T12:53:23.768Z,993.68
2023-04-02T12:54:25.506Z,993.75